To NAV CANADA Home Page Login to a new session Search on AWWS site Feedback and Comments Disclaimer Vers la page française équivalente Tips FAQ What's new on the site To the Forecasts and Observations / NOTAM section To "File a Flight Plan" website Publications and other links Update of the User's profile FIC Telephone Numbers My Weather Data Folder Route Weather Data Regional Weather Data Local Weather Data To the Forecasts and Observations / NOTAM section
Request Generated 02/24/2017 at 03:36:04 UTC . Weather information available at that time is displayed.

METAR/TAF

RED DEER REGIONAL/AB    

METAR CYQF 240300Z 00000KT 10SM BKN100 BKN250 M06/M07 A2999 RMK
AC5CI1 SLP214=
METAR CYQF 240200Z 14004KT 10SM FEW020 BKN095 OVC250 M06/M07 A2998
RMK SC1AC6CI1 SLP213=
METAR CYQF 240100Z 08004KT 10SM FEW020 BKN090 M05/M07 A2998 RMK
SC1AC6 SLP211=

TAF CYQF 232349Z 2400/2412 09005KT P6SM -SN FEW012 BKN080 TEMPO
2400/2402 4SM -SHSN BKN012
BECMG 2405/2407 BKN030
FM240700 15007KT P6SM BKN030 TEMPO 2407/2412 SCT030
BECMG 2410/2412 04004KT
RMK NXT FCST BY 240600Z=
Your time UTC time
Weather data provided by Environment Canada and NAV CANADA